sensor_id;sensor_type;location;lat;lon;timestamp;P1;durP1;ratioP1;P2;durP2;ratioP2
15946;SDS011;8072;52.554;7.966;2023-06-22T00:01:56;11.35;;;9.88;;
15946;SDS011;8072;52.554;7.966;2023-06-22T00:04:21;9.30;;;8.35;;
15946;SDS011;8072;52.554;7.966;2023-06-22T00:06:47;9.43;;;7.82;;
15946;SDS011;8072;52.554;7.966;2023-06-22T00:09:13;9.75;;;6.53;;
15946;SDS011;8072;52.554;7.966;2023-06-22T00:11:39;9.38;;;8.07;;
15946;SDS011;8072;52.554;7.966;2023-06-22T00:14:05;14.85;;;9.32;;
15946;SDS011;8072;52.554;7.966;2023-06-22T00:16:33;12.80;;;8.40;;
15946;SDS011;8072;52.554;7.966;2023-06-22T00:18:59;10.93;;;7.72;;
15946;SDS011;8072;52.554;7.966;2023-06-22T00:21:27;14.02;;;9.98;;
15946;SDS011;8072;52.554;7.966;2023-06-22T00:23:53;9.48;;;7.65;;
15946;SDS011;8072;52.554;7.966;2023-06-22T00:26:19;10.57;;;8.23;;
15946;SDS011;8072;52.554;7.966;2023-06-22T00:28:45;11.70;;;9.80;;
15946;SDS011;8072;52.554;7.966;2023-06-22T00:31:11;12.80;;;9.05;;
15946;SDS011;8072;52.554;7.966;2023-06-22T00:33:37;12.48;;;8.98;;
15946;SDS011;8072;52.554;7.966;2023-06-22T00:36:03;14.77;;;9.77;;
15946;SDS011;8072;52.554;7.966;2023-06-22T00:38:29;12.60;;;9.43;;
15946;SDS011;8072;52.554;7.966;2023-06-22T00:40:55;14.13;;;10.95;;
15946;SDS011;8072;52.554;7.966;2023-06-22T00:43:21;12.93;;;9.93;;
15946;SDS011;8072;52.554;7.966;2023-06-22T00:45:46;16.90;;;12.15;;
15946;SDS011;8072;52.554;7.966;2023-06-22T00:48:13;14.98;;;11.23;;
15946;SDS011;8072;52.554;7.966;2023-06-22T00:50:40;16.27;;;10.73;;
15946;SDS011;8072;52.554;7.966;2023-06-22T00:53:06;16.58;;;12.35;;
15946;SDS011;8072;52.554;7.966;2023-06-22T00:55:42;13.18;;;10.88;;
15946;SDS011;8072;52.554;7.966;2023-06-22T00:58:12;12.90;;;10.50;;
15946;SDS011;8072;52.554;7.966;2023-06-22T01:00:38;11.10;;;9.35;;
15946;SDS011;8072;52.554;7.966;2023-06-22T01:03:05;12.32;;;9.05;;
15946;SDS011;8072;52.554;7.966;2023-06-22T01:05:34;11.98;;;9.00;;
15946;SDS011;8072;52.554;7.966;2023-06-22T01:15:49;16.70;;;11.13;;
15946;SDS011;8072;52.554;7.966;2023-06-22T01:18:21;13.15;;;10.23;;
15946;SDS011;8072;52.554;7.966;2023-06-22T01:20:52;14.63;;;11.07;;
15946;SDS011;8072;52.554;7.966;2023-06-22T01:26:41;16.65;;;12.23;;
15946;SDS011;8072;52.554;7.966;2023-06-22T01:29:08;14.63;;;11.00;;
15946;SDS011;8072;52.554;7.966;2023-06-22T01:31:39;18.60;;;11.85;;
15946;SDS011;8072;52.554;7.966;2023-06-22T01:34:06;15.90;;;11.43;;
15946;SDS011;8072;52.554;7.966;2023-06-22T01:36:33;12.93;;;10.85;;
15946;SDS011;8072;52.554;7.966;2023-06-22T01:39:00;15.40;;;12.05;;
15946;SDS011;8072;52.554;7.966;2023-06-22T01:41:29;17.02;;;12.10;;
15946;SDS011;8072;52.554;7.966;2023-06-22T01:43:56;15.57;;;12.38;;
15946;SDS011;8072;52.554;7.966;2023-06-22T01:46:22;15.20;;;12.95;;
15946;SDS011;8072;52.554;7.966;2023-06-22T01:48:48;14.68;;;11.88;;
15946;SDS011;8072;52.554;7.966;2023-06-22T01:51:16;12.70;;;9.95;;
15946;SDS011;8072;52.554;7.966;2023-06-22T01:53:42;13.82;;;9.95;;
15946;SDS011;8072;52.554;7.966;2023-06-22T01:56:08;15.00;;;11.00;;
15946;SDS011;8072;52.554;7.966;2023-06-22T01:58:34;15.18;;;11.30;;
15946;SDS011;8072;52.554;7.966;2023-06-22T02:01:11;15.18;;;11.85;;
15946;SDS011;8072;52.554;7.966;2023-06-22T02:03:42;16.17;;;11.40;;
15946;SDS011;8072;52.554;7.966;2023-06-22T02:06:25;19.83;;;14.30;;
15946;SDS011;8072;52.554;7.966;2023-06-22T02:09:00;16.45;;;12.38;;
15946;SDS011;8072;52.554;7.966;2023-06-22T02:11:32;14.95;;;11.57;;
15946;SDS011;8072;52.554;7.966;2023-06-22T02:14:00;14.45;;;10.82;;
15946;SDS011;8072;52.554;7.966;2023-06-22T02:16:26;13.48;;;10.32;;
15946;SDS011;8072;52.554;7.966;2023-06-22T02:18:55;16.67;;;11.93;;
15946;SDS011;8072;52.554;7.966;2023-06-22T02:21:22;15.68;;;12.55;;
15946;SDS011;8072;52.554;7.966;2023-06-22T02:23:48;18.35;;;13.63;;
15946;SDS011;8072;52.554;7.966;2023-06-22T02:26:16;15.85;;;12.93;;
15946;SDS011;8072;52.554;7.966;2023-06-22T02:28:43;21.42;;;14.48;;
15946;SDS011;8072;52.554;7.966;2023-06-22T02:31:09;16.45;;;12.95;;
15946;SDS011;8072;52.554;7.966;2023-06-22T02:33:34;16.80;;;12.18;;
15946;SDS011;8072;52.554;7.966;2023-06-22T02:36:00;16.48;;;11.90;;
15946;SDS011;8072;52.554;7.966;2023-06-22T02:38:30;13.85;;;11.52;;
15946;SDS011;8072;52.554;7.966;2023-06-22T02:40:59;15.52;;;12.50;;
15946;SDS011;8072;52.554;7.966;2023-06-22T02:43:25;17.77;;;13.35;;
15946;SDS011;8072;52.554;7.966;2023-06-22T02:45:51;18.52;;;14.13;;
15946;SDS011;8072;52.554;7.966;2023-06-22T02:48:17;15.45;;;11.27;;
15946;SDS011;8072;52.554;7.966;2023-06-22T02:50:43;15.95;;;12.82;;
15946;SDS011;8072;52.554;7.966;2023-06-22T02:53:08;17.70;;;13.23;;
15946;SDS011;8072;52.554;7.966;2023-06-22T02:55:34;17.38;;;14.55;;
15946;SDS011;8072;52.554;7.966;2023-06-22T02:58:00;19.75;;;15.93;;
15946;SDS011;8072;52.554;7.966;2023-06-22T03:00:30;20.30;;;15.50;;
15946;SDS011;8072;52.554;7.966;2023-06-22T03:02:57;20.27;;;15.90;;
15946;SDS011;8072;52.554;7.966;2023-06-22T03:05:23;15.77;;;12.35;;
15946;SDS011;8072;52.554;7.966;2023-06-22T03:07:50;18.05;;;13.93;;
15946;SDS011;8072;52.554;7.966;2023-06-22T03:10:16;18.67;;;14.93;;
15946;SDS011;8072;52.554;7.966;2023-06-22T03:12:42;19.05;;;14.60;;
15946;SDS011;8072;52.554;7.966;2023-06-22T03:15:09;15.88;;;13.35;;
15946;SDS011;8072;52.554;7.966;2023-06-22T03:17:37;21.65;;;17.27;;
15946;SDS011;8072;52.554;7.966;2023-06-22T03:20:06;25.13;;;17.90;;
15946;SDS011;8072;52.554;7.966;2023-06-22T03:22:40;21.73;;;16.77;;
15946;SDS011;8072;52.554;7.966;2023-06-22T03:25:07;18.58;;;13.95;;
15946;SDS011;8072;52.554;7.966;2023-06-22T03:27:36;21.33;;;16.27;;
15946;SDS011;8072;52.554;7.966;2023-06-22T03:30:02;20.63;;;16.50;;
15946;SDS011;8072;52.554;7.966;2023-06-22T03:32:28;24.33;;;15.88;;
15946;SDS011;8072;52.554;7.966;2023-06-22T03:34:54;23.70;;;19.45;;
15946;SDS011;8072;52.554;7.966;2023-06-22T03:37:24;25.13;;;19.90;;
15946;SDS011;8072;52.554;7.966;2023-06-22T03:39:51;27.25;;;19.92;;
15946;SDS011;8072;52.554;7.966;2023-06-22T03:42:17;21.75;;;16.17;;
15946;SDS011;8072;52.554;7.966;2023-06-22T03:44:43;22.33;;;17.10;;
15946;SDS011;8072;52.554;7.966;2023-06-22T03:47:13;22.60;;;17.60;;
15946;SDS011;8072;52.554;7.966;2023-06-22T03:49:39;26.02;;;20.38;;
15946;SDS011;8072;52.554;7.966;2023-06-22T03:52:05;26.95;;;19.65;;
15946;SDS011;8072;52.554;7.966;2023-06-22T03:54:31;24.85;;;19.17;;
15946;SDS011;8072;52.554;7.966;2023-06-22T03:56:57;25.35;;;18.70;;
15946;SDS011;8072;52.554;7.966;2023-06-22T03:59:23;26.13;;;20.10;;
15946;SDS011;8072;52.554;7.966;2023-06-22T04:01:49;30.98;;;23.00;;
15946;SDS011;8072;52.554;7.966;2023-06-22T04:04:16;27.17;;;21.90;;
15946;SDS011;8072;52.554;7.966;2023-06-22T04:06:45;29.30;;;21.58;;
15946;SDS011;8072;52.554;7.966;2023-06-22T04:09:10;25.98;;;20.85;;
15946;SDS011;8072;52.554;7.966;2023-06-22T04:11:36;29.85;;;20.30;;
15946;SDS011;8072;52.554;7.966;2023-06-22T04:14:02;28.33;;;21.95;;
15946;SDS011;8072;52.554;7.966;2023-06-22T04:16:28;31.13;;;23.48;;
15946;SDS011;8072;52.554;7.966;2023-06-22T04:18:54;26.00;;;20.70;;
15946;SDS011;8072;52.554;7.966;2023-06-22T04:21:19;28.38;;;21.70;;
15946;SDS011;8072;52.554;7.966;2023-06-22T04:23:45;27.52;;;21.30;;
15946;SDS011;8072;52.554;7.966;2023-06-22T04:26:12;27.77;;;22.67;;
15946;SDS011;8072;52.554;7.966;2023-06-22T04:28:39;29.08;;;22.02;;
15946;SDS011;8072;52.554;7.966;2023-06-22T04:31:05;26.65;;;21.95;;
15946;SDS011;8072;52.554;7.966;2023-06-22T04:33:31;32.08;;;22.45;;
15946;SDS011;8072;52.554;7.966;2023-06-22T04:35:57;28.08;;;22.45;;
15946;SDS011;8072;52.554;7.966;2023-06-22T04:38:29;28.23;;;22.40;;
15946;SDS011;8072;52.554;7.966;2023-06-22T04:40:58;30.90;;;23.35;;
15946;SDS011;8072;52.554;7.966;2023-06-22T04:43:26;29.57;;;22.83;;
15946;SDS011;8072;52.554;7.966;2023-06-22T04:45:55;29.90;;;21.52;;
15946;SDS011;8072;52.554;7.966;2023-06-22T04:48:28;29.90;;;22.60;;
15946;SDS011;8072;52.554;7.966;2023-06-22T04:50:58;30.95;;;22.85;;
15946;SDS011;8072;52.554;7.966;2023-06-22T04:53:30;31.60;;;23.85;;
15946;SDS011;8072;52.554;7.966;2023-06-22T04:55:56;29.35;;;21.60;;
15946;SDS011;8072;52.554;7.966;2023-06-22T04:58:21;28.30;;;22.67;;
15946;SDS011;8072;52.554;7.966;2023-06-22T05:00:47;28.48;;;20.85;;
15946;SDS011;8072;52.554;7.966;2023-06-22T05:03:16;28.27;;;21.10;;
15946;SDS011;8072;52.554;7.966;2023-06-22T05:05:43;30.15;;;22.88;;
15946;SDS011;8072;52.554;7.966;2023-06-22T05:08:09;24.98;;;19.48;;
15946;SDS011;8072;52.554;7.966;2023-06-22T05:10:36;29.73;;;22.08;;
15946;SDS011;8072;52.554;7.966;2023-06-22T05:13:02;28.10;;;21.00;;
15946;SDS011;8072;52.554;7.966;2023-06-22T05:15:28;27.50;;;21.05;;
15946;SDS011;8072;52.554;7.966;2023-06-22T05:17:55;28.52;;;21.35;;
15946;SDS011;8072;52.554;7.966;2023-06-22T05:20:21;28.15;;;22.10;;
15946;SDS011;8072;52.554;7.966;2023-06-22T05:22:47;25.92;;;20.73;;
15946;SDS011;8072;52.554;7.966;2023-06-22T05:25:13;28.60;;;21.52;;
15946;SDS011;8072;52.554;7.966;2023-06-22T05:27:39;26.60;;;19.95;;
15946;SDS011;8072;52.554;7.966;2023-06-22T05:30:05;24.77;;;18.77;;
15946;SDS011;8072;52.554;7.966;2023-06-22T05:32:32;27.58;;;19.02;;
15946;SDS011;8072;52.554;7.966;2023-06-22T05:34:58;24.98;;;18.67;;
15946;SDS011;8072;52.554;7.966;2023-06-22T05:37:24;25.33;;;18.95;;
15946;SDS011;8072;52.554;7.966;2023-06-22T05:39:51;23.70;;;17.88;;
15946;SDS011;8072;52.554;7.966;2023-06-22T05:42:17;21.77;;;17.60;;
15946;SDS011;8072;52.554;7.966;2023-06-22T05:44:43;23.40;;;18.15;;
15946;SDS011;8072;52.554;7.966;2023-06-22T05:47:08;21.77;;;16.63;;
15946;SDS011;8072;52.554;7.966;2023-06-22T05:49:34;22.42;;;16.13;;
15946;SDS011;8072;52.554;7.966;2023-06-22T05:52:00;20.48;;;15.93;;
15946;SDS011;8072;52.554;7.966;2023-06-22T05:54:29;19.30;;;14.93;;
15946;SDS011;8072;52.554;7.966;2023-06-22T05:56:55;19.90;;;14.82;;
15946;SDS011;8072;52.554;7.966;2023-06-22T05:59:21;20.02;;;15.35;;
15946;SDS011;8072;52.554;7.966;2023-06-22T06:01:47;23.77;;;15.75;;
15946;SDS011;8072;52.554;7.966;2023-06-22T06:04:18;21.05;;;16.40;;
15946;SDS011;8072;52.554;7.966;2023-06-22T06:06:44;21.20;;;15.52;;
15946;SDS011;8072;52.554;7.966;2023-06-22T06:09:12;17.73;;;14.80;;
15946;SDS011;8072;52.554;7.966;2023-06-22T06:11:38;18.42;;;14.18;;
15946;SDS011;8072;52.554;7.966;2023-06-22T06:14:04;20.98;;;15.15;;
15946;SDS011;8072;52.554;7.966;2023-06-22T06:16:30;19.73;;;15.20;;
15946;SDS011;8072;52.554;7.966;2023-06-22T06:18:55;16.02;;;12.68;;
15946;SDS011;8072;52.554;7.966;2023-06-22T06:21:21;16.17;;;13.38;;
15946;SDS011;8072;52.554;7.966;2023-06-22T06:23:47;27.05;;;14.07;;
15946;SDS011;8072;52.554;7.966;2023-06-22T06:26:13;16.15;;;13.30;;
15946;SDS011;8072;52.554;7.966;2023-06-22T06:28:41;18.73;;;14.30;;
15946;SDS011;8072;52.554;7.966;2023-06-22T06:31:08;17.50;;;13.55;;
15946;SDS011;8072;52.554;7.966;2023-06-22T06:33:34;18.92;;;13.02;;
15946;SDS011;8072;52.554;7.966;2023-06-22T06:36:00;16.70;;;13.05;;
15946;SDS011;8072;52.554;7.966;2023-06-22T06:38:28;18.33;;;13.80;;
15946;SDS011;8072;52.554;7.966;2023-06-22T06:40:55;19.20;;;13.43;;
15946;SDS011;8072;52.554;7.966;2023-06-22T06:43:21;16.67;;;13.35;;
15946;SDS011;8072;52.554;7.966;2023-06-22T06:45:47;15.57;;;12.40;;
15946;SDS011;8072;52.554;7.966;2023-06-22T06:48:13;15.23;;;12.02;;
15946;SDS011;8072;52.554;7.966;2023-06-22T06:50:39;15.15;;;11.90;;
15946;SDS011;8072;52.554;7.966;2023-06-22T06:53:06;12.82;;;11.00;;
15946;SDS011;8072;52.554;7.966;2023-06-22T06:55:32;14.30;;;11.15;;
15946;SDS011;8072;52.554;7.966;2023-06-22T06:58:01;14.60;;;11.25;;
15946;SDS011;8072;52.554;7.966;2023-06-22T07:00:29;14.57;;;10.95;;
15946;SDS011;8072;52.554;7.966;2023-06-22T07:02:55;12.80;;;10.07;;
15946;SDS011;8072;52.554;7.966;2023-06-22T07:05:20;16.00;;;10.07;;
15946;SDS011;8072;52.554;7.966;2023-06-22T07:07:46;13.23;;;9.45;;
15946;SDS011;8072;52.554;7.966;2023-06-22T07:10:12;14.20;;;9.35;;
15946;SDS011;8072;52.554;7.966;2023-06-22T07:12:37;12.77;;;9.50;;
15946;SDS011;8072;52.554;7.966;2023-06-22T07:15:04;13.23;;;8.80;;
15946;SDS011;8072;52.554;7.966;2023-06-22T07:17:33;9.95;;;8.27;;
15946;SDS011;8072;52.554;7.966;2023-06-22T07:19:59;14.15;;;8.75;;
15946;SDS011;8072;52.554;7.966;2023-06-22T07:22:26;13.25;;;7.65;;
15946;SDS011;8072;52.554;7.966;2023-06-22T07:24:52;9.40;;;6.97;;
15946;SDS011;8072;52.554;7.966;2023-06-22T07:27:17;11.32;;;7.15;;
15946;SDS011;8072;52.554;7.966;2023-06-22T07:29:46;10.60;;;7.60;;
15946;SDS011;8072;52.554;7.966;2023-06-22T07:32:12;11.27;;;7.68;;
15946;SDS011;8072;52.554;7.966;2023-06-22T07:34:38;8.75;;;7.38;;
15946;SDS011;8072;52.554;7.966;2023-06-22T07:37:03;10.45;;;7.10;;
15946;SDS011;8072;52.554;7.966;2023-06-22T07:39:30;8.43;;;7.00;;
15946;SDS011;8072;52.554;7.966;2023-06-22T07:41:55;11.50;;;7.28;;
15946;SDS011;8072;52.554;7.966;2023-06-22T07:44:21;11.00;;;7.30;;
15946;SDS011;8072;52.554;7.966;2023-06-22T07:46:47;11.32;;;7.90;;
15946;SDS011;8072;52.554;7.966;2023-06-22T07:49:13;10.18;;;7.68;;
15946;SDS011;8072;52.554;7.966;2023-06-22T07:51:39;10.68;;;7.63;;
15946;SDS011;8072;52.554;7.966;2023-06-22T07:54:05;14.52;;;8.15;;
15946;SDS011;8072;52.554;7.966;2023-06-22T07:56:30;9.65;;;6.90;;
15946;SDS011;8072;52.554;7.966;2023-06-22T07:58:57;11.60;;;8.43;;
15946;SDS011;8072;52.554;7.966;2023-06-22T08:01:24;10.63;;;7.63;;
15946;SDS011;8072;52.554;7.966;2023-06-22T08:03:50;10.77;;;7.60;;
15946;SDS011;8072;52.554;7.966;2023-06-22T08:06:16;11.40;;;7.80;;
15946;SDS011;8072;52.554;7.966;2023-06-22T08:08:42;9.98;;;8.25;;
15946;SDS011;8072;52.554;7.966;2023-06-22T08:11:08;9.13;;;7.28;;
15946;SDS011;8072;52.554;7.966;2023-06-22T08:13:34;9.82;;;7.90;;
15946;SDS011;8072;52.554;7.966;2023-06-22T08:16:00;10.10;;;8.10;;
15946;SDS011;8072;52.554;7.966;2023-06-22T08:18:26;9.35;;;7.63;;
15946;SDS011;8072;52.554;7.966;2023-06-22T08:20:52;11.52;;;8.02;;
15946;SDS011;8072;52.554;7.966;2023-06-22T08:23:18;12.75;;;7.93;;
15946;SDS011;8072;52.554;7.966;2023-06-22T08:25:43;11.88;;;8.65;;
15946;SDS011;8072;52.554;7.966;2023-06-22T08:28:09;11.60;;;8.52;;
15946;SDS011;8072;52.554;7.966;2023-06-22T08:30:35;12.07;;;7.70;;
15946;SDS011;8072;52.554;7.966;2023-06-22T08:33:03;8.63;;;6.63;;
15946;SDS011;8072;52.554;7.966;2023-06-22T08:35:29;11.48;;;8.30;;
15946;SDS011;8072;52.554;7.966;2023-06-22T08:37:55;10.55;;;7.40;;
15946;SDS011;8072;52.554;7.966;2023-06-22T08:40:22;13.73;;;8.15;;
15946;SDS011;8072;52.554;7.966;2023-06-22T08:42:48;11.52;;;7.55;;
15946;SDS011;8072;52.554;7.966;2023-06-22T08:45:14;10.55;;;7.55;;
15946;SDS011;8072;52.554;7.966;2023-06-22T08:47:40;11.23;;;8.10;;
15946;SDS011;8072;52.554;7.966;2023-06-22T08:50:07;11.73;;;8.23;;
15946;SDS011;8072;52.554;7.966;2023-06-22T08:52:34;9.13;;;7.22;;
15946;SDS011;8072;52.554;7.966;2023-06-22T08:55:01;11.48;;;8.27;;
15946;SDS011;8072;52.554;7.966;2023-06-22T08:57:27;8.50;;;6.53;;
15946;SDS011;8072;52.554;7.966;2023-06-22T08:59:53;11.38;;;7.22;;
15946;SDS011;8072;52.554;7.966;2023-06-22T09:02:23;10.95;;;8.32;;
15946;SDS011;8072;52.554;7.966;2023-06-22T09:04:49;10.75;;;7.28;;
15946;SDS011;8072;52.554;7.966;2023-06-22T09:07:20;9.60;;;7.55;;
15946;SDS011;8072;52.554;7.966;2023-06-22T09:09:51;12.10;;;7.78;;
15946;SDS011;8072;52.554;7.966;2023-06-22T09:12:17;8.38;;;6.75;;
15946;SDS011;8072;52.554;7.966;2023-06-22T09:14:50;6.50;;;5.82;;
15946;SDS011;8072;52.554;7.966;2023-06-22T09:17:16;9.38;;;7.25;;
15946;SDS011;8072;52.554;7.966;2023-06-22T09:19:42;9.45;;;6.57;;
15946;SDS011;8072;52.554;7.966;2023-06-22T09:22:08;8.75;;;7.13;;
15946;SDS011;8072;52.554;7.966;2023-06-22T09:24:34;10.00;;;7.50;;
15946;SDS011;8072;52.554;7.966;2023-06-22T09:27:00;11.13;;;7.78;;
15946;SDS011;8072;52.554;7.966;2023-06-22T09:29:26;9.57;;;7.60;;
15946;SDS011;8072;52.554;7.966;2023-06-22T09:31:51;10.30;;;6.85;;
15946;SDS011;8072;52.554;7.966;2023-06-22T09:34:20;10.57;;;7.80;;
15946;SDS011;8072;52.554;7.966;2023-06-22T09:36:46;9.85;;;7.20;;
15946;SDS011;8072;52.554;7.966;2023-06-22T09:39:12;8.15;;;6.55;;
15946;SDS011;8072;52.554;7.966;2023-06-22T09:41:38;9.75;;;7.50;;
15946;SDS011;8072;52.554;7.966;2023-06-22T09:44:04;10.30;;;7.53;;
15946;SDS011;8072;52.554;7.966;2023-06-22T09:46:29;11.27;;;7.47;;
15946;SDS011;8072;52.554;7.966;2023-06-22T09:48:55;12.35;;;8.18;;
15946;SDS011;8072;52.554;7.966;2023-06-22T09:51:21;8.27;;;6.50;;
15946;SDS011;8072;52.554;7.966;2023-06-22T09:53:49;10.85;;;7.53;;
15946;SDS011;8072;52.554;7.966;2023-06-22T09:56:15;10.68;;;7.18;;
15946;SDS011;8072;52.554;7.966;2023-06-22T09:58:45;9.55;;;7.68;;
15946;SDS011;8072;52.554;7.966;2023-06-22T10:01:11;9.70;;;7.05;;
15946;SDS011;8072;52.554;7.966;2023-06-22T10:03:39;10.00;;;6.47;;
15946;SDS011;8072;52.554;7.966;2023-06-22T10:06:07;10.93;;;7.00;;
15946;SDS011;8072;52.554;7.966;2023-06-22T10:08:34;8.88;;;6.30;;
15946;SDS011;8072;52.554;7.966;2023-06-22T10:11:00;10.88;;;6.68;;
15946;SDS011;8072;52.554;7.966;2023-06-22T10:13:26;10.30;;;6.45;;
15946;SDS011;8072;52.554;7.966;2023-06-22T10:15:52;10.13;;;7.10;;
15946;SDS011;8072;52.554;7.966;2023-06-22T10:18:18;9.40;;;6.85;;
15946;SDS011;8072;52.554;7.966;2023-06-22T10:20:47;9.57;;;7.15;;
15946;SDS011;8072;52.554;7.966;2023-06-22T10:23:14;9.63;;;7.32;;
15946;SDS011;8072;52.554;7.966;2023-06-22T10:25:39;9.50;;;7.57;;
15946;SDS011;8072;52.554;7.966;2023-06-22T10:28:05;8.80;;;7.32;;
15946;SDS011;8072;52.554;7.966;2023-06-22T10:30:32;9.95;;;7.95;;
15946;SDS011;8072;52.554;7.966;2023-06-22T10:32:58;11.93;;;8.60;;
15946;SDS011;8072;52.554;7.966;2023-06-22T10:35:23;12.15;;;7.82;;
15946;SDS011;8072;52.554;7.966;2023-06-22T10:37:49;10.88;;;8.10;;
15946;SDS011;8072;52.554;7.966;2023-06-22T10:40:16;11.57;;;9.18;;
15946;SDS011;8072;52.554;7.966;2023-06-22T10:42:43;12.43;;;9.35;;
15946;SDS011;8072;52.554;7.966;2023-06-22T10:45:09;12.82;;;9.70;;
15946;SDS011;8072;52.554;7.966;2023-06-22T10:47:36;12.45;;;9.55;;
15946;SDS011;8072;52.554;7.966;2023-06-22T10:50:02;13.85;;;10.00;;
15946;SDS011;8072;52.554;7.966;2023-06-22T10:52:29;11.38;;;8.95;;
15946;SDS011;8072;52.554;7.966;2023-06-22T10:54:54;11.20;;;9.25;;
15946;SDS011;8072;52.554;7.966;2023-06-22T10:57:21;11.82;;;8.95;;
15946;SDS011;8072;52.554;7.966;2023-06-22T10:59:46;13.43;;;9.23;;
15946;SDS011;8072;52.554;7.966;2023-06-22T11:02:12;15.75;;;10.32;;
15946;SDS011;8072;52.554;7.966;2023-06-22T11:04:38;14.05;;;9.88;;
15946;SDS011;8072;52.554;7.966;2023-06-22T11:07:04;11.57;;;9.77;;
15946;SDS011;8072;52.554;7.966;2023-06-22T11:09:30;12.43;;;9.45;;
15946;SDS011;8072;52.554;7.966;2023-06-22T11:11:56;12.93;;;10.52;;
15946;SDS011;8072;52.554;7.966;2023-06-22T11:14:24;13.82;;;9.13;;
15946;SDS011;8072;52.554;7.966;2023-06-22T11:16:49;13.20;;;8.55;;
15946;SDS011;8072;52.554;7.966;2023-06-22T11:19:15;12.85;;;9.60;;
15946;SDS011;8072;52.554;7.966;2023-06-22T11:21:41;11.23;;;9.20;;
15946;SDS011;8072;52.554;7.966;2023-06-22T11:24:07;12.18;;;9.00;;
15946;SDS011;8072;52.554;7.966;2023-06-22T11:26:34;13.50;;;9.95;;
15946;SDS011;8072;52.554;7.966;2023-06-22T11:29:01;13.07;;;9.43;;
15946;SDS011;8072;52.554;7.966;2023-06-22T11:31:30;10.98;;;8.23;;
15946;SDS011;8072;52.554;7.966;2023-06-22T11:33:56;15.05;;;9.02;;
15946;SDS011;8072;52.554;7.966;2023-06-22T11:36:22;11.35;;;8.68;;
15946;SDS011;8072;52.554;7.966;2023-06-22T11:38:47;9.40;;;8.10;;
15946;SDS011;8072;52.554;7.966;2023-06-22T11:41:13;11.13;;;8.90;;
15946;SDS011;8072;52.554;7.966;2023-06-22T11:43:39;9.65;;;8.57;;
15946;SDS011;8072;52.554;7.966;2023-06-22T11:46:05;9.15;;;7.75;;
15946;SDS011;8072;52.554;7.966;2023-06-22T11:48:31;9.15;;;7.72;;
15946;SDS011;8072;52.554;7.966;2023-06-22T11:50:57;12.55;;;7.97;;
15946;SDS011;8072;52.554;7.966;2023-06-22T11:53:24;9.60;;;7.15;;
15946;SDS011;8072;52.554;7.966;2023-06-22T11:55:51;9.95;;;7.72;;
15946;SDS011;8072;52.554;7.966;2023-06-22T11:58:17;10.52;;;7.45;;
15946;SDS011;8072;52.554;7.966;2023-06-22T12:00:43;10.25;;;7.72;;
15946;SDS011;8072;52.554;7.966;2023-06-22T12:03:10;9.48;;;8.02;;
15946;SDS011;8072;52.554;7.966;2023-06-22T12:05:37;11.40;;;8.00;;
15946;SDS011;8072;52.554;7.966;2023-06-22T12:08:03;8.48;;;7.43;;
15946;SDS011;8072;52.554;7.966;2023-06-22T12:10:29;11.35;;;7.88;;
15946;SDS011;8072;52.554;7.966;2023-06-22T12:12:56;10.23;;;7.47;;
15946;SDS011;8072;52.554;7.966;2023-06-22T12:15:23;8.77;;;7.85;;
15946;SDS011;8072;52.554;7.966;2023-06-22T12:17:49;10.00;;;7.45;;
15946;SDS011;8072;52.554;7.966;2023-06-22T12:20:15;10.00;;;7.53;;
15946;SDS011;8072;52.554;7.966;2023-06-22T12:22:42;8.93;;;7.32;;
15946;SDS011;8072;52.554;7.966;2023-06-22T12:25:09;8.95;;;6.80;;
15946;SDS011;8072;52.554;7.966;2023-06-22T12:27:37;8.55;;;7.18;;
15946;SDS011;8072;52.554;7.966;2023-06-22T12:30:03;9.30;;;7.65;;
15946;SDS011;8072;52.554;7.966;2023-06-22T12:32:29;9.20;;;7.43;;
15946;SDS011;8072;52.554;7.966;2023-06-22T12:34:55;8.32;;;7.07;;
15946;SDS011;8072;52.554;7.966;2023-06-22T12:37:22;9.05;;;7.05;;
15946;SDS011;8072;52.554;7.966;2023-06-22T12:39:48;7.72;;;6.93;;
15946;SDS011;8072;52.554;7.966;2023-06-22T12:42:17;9.77;;;7.25;;
15946;SDS011;8072;52.554;7.966;2023-06-22T12:44:42;8.55;;;6.88;;
15946;SDS011;8072;52.554;7.966;2023-06-22T12:47:08;8.35;;;6.90;;
15946;SDS011;8072;52.554;7.966;2023-06-22T12:49:35;9.25;;;7.40;;
15946;SDS011;8072;52.554;7.966;2023-06-22T12:52:01;8.20;;;6.80;;
15946;SDS011;8072;52.554;7.966;2023-06-22T12:54:27;8.52;;;7.10;;
15946;SDS011;8072;52.554;7.966;2023-06-22T12:56:54;9.70;;;7.30;;
15946;SDS011;8072;52.554;7.966;2023-06-22T12:59:20;11.57;;;7.80;;
15946;SDS011;8072;52.554;7.966;2023-06-22T13:01:46;10.93;;;7.18;;
15946;SDS011;8072;52.554;7.966;2023-06-22T13:04:12;8.93;;;7.22;;
15946;SDS011;8072;52.554;7.966;2023-06-22T13:06:46;9.60;;;7.15;;
15946;SDS011;8072;52.554;7.966;2023-06-22T13:09:17;8.93;;;7.13;;
15946;SDS011;8072;52.554;7.966;2023-06-22T13:11:43;8.70;;;7.13;;
15946;SDS011;8072;52.554;7.966;2023-06-22T13:14:09;10.88;;;7.22;;
15946;SDS011;8072;52.554;7.966;2023-06-22T13:16:35;20.27;;;7.28;;
15946;SDS011;8072;52.554;7.966;2023-06-22T13:19:01;10.80;;;6.93;;
15946;SDS011;8072;52.554;7.966;2023-06-22T13:21:27;9.55;;;7.15;;
15946;SDS011;8072;52.554;7.966;2023-06-22T13:23:52;9.85;;;7.63;;
15946;SDS011;8072;52.554;7.966;2023-06-22T13:26:18;8.25;;;6.60;;
15946;SDS011;8072;52.554;7.966;2023-06-22T13:28:44;12.27;;;8.27;;
15946;SDS011;8072;52.554;7.966;2023-06-22T13:31:10;10.40;;;7.38;;
15946;SDS011;8072;52.554;7.966;2023-06-22T13:33:35;14.32;;;7.60;;
15946;SDS011;8072;52.554;7.966;2023-06-22T13:36:03;14.02;;;8.00;;
15946;SDS011;8072;52.554;7.966;2023-06-22T13:38:29;10.70;;;7.65;;
15946;SDS011;8072;52.554;7.966;2023-06-22T13:40:55;9.05;;;7.53;;
15946;SDS011;8072;52.554;7.966;2023-06-22T13:43:23;9.35;;;7.07;;
15946;SDS011;8072;52.554;7.966;2023-06-22T13:45:49;10.25;;;7.20;;
15946;SDS011;8072;52.554;7.966;2023-06-22T13:48:15;9.02;;;7.63;;
15946;SDS011;8072;52.554;7.966;2023-06-22T13:50:41;8.98;;;7.10;;
15946;SDS011;8072;52.554;7.966;2023-06-22T13:53:06;12.57;;;7.82;;
15946;SDS011;8072;52.554;7.966;2023-06-22T13:55:32;8.95;;;7.15;;
15946;SDS011;8072;52.554;7.966;2023-06-22T13:57:58;9.60;;;7.80;;
15946;SDS011;8072;52.554;7.966;2023-06-22T14:00:23;10.70;;;7.47;;
15946;SDS011;8072;52.554;7.966;2023-06-22T14:02:49;11.07;;;7.40;;
15946;SDS011;8072;52.554;7.966;2023-06-22T14:05:15;10.07;;;7.43;;
15946;SDS011;8072;52.554;7.966;2023-06-22T14:07:41;9.57;;;7.68;;
15946;SDS011;8072;52.554;7.966;2023-06-22T14:10:07;11.13;;;7.97;;
15946;SDS011;8072;52.554;7.966;2023-06-22T14:12:33;10.45;;;8.73;;
15946;SDS011;8072;52.554;7.966;2023-06-22T14:14:59;12.48;;;8.93;;
15946;SDS011;8072;52.554;7.966;2023-06-22T14:17:25;10.93;;;9.07;;
15946;SDS011;8072;52.554;7.966;2023-06-22T14:19:51;10.32;;;8.55;;
15946;SDS011;8072;52.554;7.966;2023-06-22T14:22:18;12.13;;;10.10;;
15946;SDS011;8072;52.554;7.966;2023-06-22T14:24:47;12.25;;;10.63;;
15946;SDS011;8072;52.554;7.966;2023-06-22T14:27:14;11.93;;;10.35;;
15946;SDS011;8072;52.554;7.966;2023-06-22T14:29:40;12.32;;;10.43;;
15946;SDS011;8072;52.554;7.966;2023-06-22T14:32:06;14.05;;;10.52;;
15946;SDS011;8072;52.554;7.966;2023-06-22T14:34:33;13.43;;;10.50;;
15946;SDS011;8072;52.554;7.966;2023-06-22T14:37:01;12.10;;;10.27;;
15946;SDS011;8072;52.554;7.966;2023-06-22T14:39:27;14.77;;;10.77;;
15946;SDS011;8072;52.554;7.966;2023-06-22T14:41:53;13.32;;;11.55;;
15946;SDS011;8072;52.554;7.966;2023-06-22T14:44:19;13.65;;;10.65;;
15946;SDS011;8072;52.554;7.966;2023-06-22T14:46:45;12.68;;;10.70;;
15946;SDS011;8072;52.554;7.966;2023-06-22T14:49:11;13.68;;;11.85;;
15946;SDS011;8072;52.554;7.966;2023-06-22T14:51:39;17.00;;;12.18;;
15946;SDS011;8072;52.554;7.966;2023-06-22T14:54:05;17.65;;;13.10;;